createdAt,value
2017-12-26T00:01:33.255Z,44.97
2017-12-26T00:04:01.941Z,54.10
2017-12-26T00:06:30.981Z,69.23
2017-12-26T00:09:00.441Z,108.70
2017-12-26T00:11:29.063Z,151.30
2017-12-26T00:13:58.585Z,165.10
2017-12-26T00:16:27.311Z,170.17
2017-12-26T00:18:55.897Z,137.57
2017-12-26T00:21:24.961Z,94.73
2017-12-26T00:23:53.675Z,63.87
2017-12-26T00:26:22.362Z,68.27
2017-12-26T00:28:51.157Z,62.47
2017-12-26T00:31:19.780Z,60.80
2017-12-26T00:33:49.241Z,55.87
2017-12-26T00:36:18.026Z,58.73
2017-12-26T00:38:46.711Z,60.80
2017-12-26T00:41:15.354Z,55.60
2017-12-26T00:43:44.246Z,58.07
2017-12-26T00:46:13.691Z,70.37
2017-12-26T00:48:42.375Z,71.37
2017-12-26T00:51:11.271Z,69.50
2017-12-26T00:53:39.895Z,78.07
2017-12-26T00:56:09.257Z,74.50
2017-12-26T00:58:38.204Z,61.77
2017-12-26T01:01:07.649Z,68.63
2017-12-26T01:03:36.313Z,57.73
2017-12-26T01:06:05.078Z,54.70
2017-12-26T01:08:34.529Z,54.83
2017-12-26T01:11:03.167Z,42.23
2017-12-26T01:13:32.656Z,42.07
2017-12-26T01:16:02.123Z,44.30
2017-12-26T01:18:30.700Z,41.93
2017-12-26T01:20:59.312Z,39.47
2017-12-26T01:23:27.871Z,32.57
2017-12-26T01:25:56.557Z,38.40
2017-12-26T01:28:25.243Z,38.40
2017-12-26T01:30:53.884Z,36.03
2017-12-26T01:33:22.615Z,34.60
2017-12-26T01:35:51.670Z,32.27
2017-12-26T01:38:20.337Z,33.57
2017-12-26T01:40:49.754Z,43.40
2017-12-26T01:43:19.247Z,38.83
2017-12-26T01:45:48.713Z,38.60
2017-12-26T01:48:17.252Z,37.27
2017-12-26T01:50:45.971Z,35.90
2017-12-26T01:53:14.657Z,45.23
2017-12-26T01:55:43.310Z,47.37
2017-12-26T01:58:12.336Z,36.77
2017-12-26T02:00:41.068Z,41.17
2017-12-26T02:03:10.464Z,41.67
2017-12-26T02:05:39.979Z,49.20
2017-12-26T02:08:09.439Z,55.80
2017-12-26T02:10:39.868Z,77.20
2017-12-26T02:13:08.473Z,87.87
2017-12-26T02:15:37.129Z,85.80
2017-12-26T02:18:05.816Z,113.07
2017-12-26T02:20:34.788Z,139.97
2017-12-26T02:23:03.501Z,170.20
2017-12-26T02:25:32.084Z,159.00
2017-12-26T02:28:01.076Z,120.17
2017-12-26T02:30:29.812Z,85.20
2017-12-26T02:32:59.269Z,55.17
2017-12-26T02:35:28.054Z,31.93
2017-12-26T02:37:56.741Z,25.53
2017-12-26T02:40:25.425Z,33.33
2017-12-26T02:42:54.200Z,29.60
2017-12-26T02:45:22.894Z,35.67
2017-12-26T02:47:51.533Z,50.13
2017-12-26T02:50:21.026Z,57.87
2017-12-26T02:52:50.489Z,55.50
2017-12-26T02:55:19.136Z,60.97
2017-12-26T02:57:47.900Z,52.50
2017-12-26T03:00:16.592Z,55.17
2017-12-26T03:02:46.055Z,50.97
2017-12-26T03:05:14.807Z,45.80
2017-12-26T03:07:43.425Z,55.27
2017-12-26T03:10:12.013Z,48.20
2017-12-26T03:12:40.896Z,54.10
2017-12-26T03:15:09.527Z,49.90
2017-12-26T03:17:38.992Z,43.67
2017-12-26T03:20:07.668Z,49.40
2017-12-26T03:22:36.364Z,43.27
2017-12-26T03:25:05.153Z,47.27
2017-12-26T03:27:33.933Z,47.33
2017-12-26T03:30:02.590Z,45.93
2017-12-26T03:32:31.304Z,48.30
2017-12-26T03:35:00.041Z,43.47
2017-12-26T03:37:29.366Z,40.37
2017-12-26T03:39:58.027Z,41.77
2017-12-26T03:42:27.497Z,51.93
2017-12-26T03:44:56.060Z,52.33
2017-12-26T03:47:24.954Z,47.33
2017-12-26T03:49:53.543Z,47.27
2017-12-26T03:52:22.218Z,50.50
2017-12-26T03:54:50.861Z,57.07
2017-12-26T03:57:20.619Z,41.90
2017-12-26T03:59:49.273Z,43.10
2017-12-26T04:02:17.991Z,43.50
2017-12-26T04:04:46.677Z,39.90
2017-12-26T04:07:15.364Z,41.50
2017-12-26T04:09:44.046Z,45.90
2017-12-26T04:12:12.944Z,44.57
2017-12-26T04:14:41.629Z,37.87
2017-12-26T04:17:10.296Z,33.93
2017-12-26T04:19:39.063Z,33.83
2017-12-26T04:22:07.785Z,34.13
2017-12-26T04:24:36.423Z,32.10
2017-12-26T04:27:05.916Z,30.63
2017-12-26T04:29:35.340Z,30.63
2017-12-26T04:32:04.063Z,29.33
2017-12-26T04:34:32.668Z,26.57
2017-12-26T04:37:01.336Z,32.50
2017-12-26T04:39:30.120Z,28.87
2017-12-26T04:41:58.819Z,33.07
2017-12-26T04:44:27.492Z,39.27
2017-12-26T04:46:56.178Z,46.70
2017-12-26T04:49:24.872Z,56.50
2017-12-26T04:51:53.544Z,55.67
2017-12-26T04:54:22.185Z,46.77
2017-12-26T04:56:51.803Z,41.90
2017-12-26T04:59:20.446Z,42.50
2017-12-26T05:01:49.215Z,62.23
2017-12-26T05:04:17.881Z,54.90
2017-12-26T05:06:46.549Z,58.33
2017-12-26T05:09:15.272Z,40.60
2017-12-26T05:11:43.956Z,73.03
2017-12-26T05:14:12.644Z,69.90
2017-12-26T05:16:41.301Z,73.33
2017-12-26T05:19:10.168Z,61.60
2017-12-26T05:21:39.622Z,67.77
2017-12-26T05:24:08.309Z,87.30
2017-12-26T05:26:37.038Z,95.23
2017-12-26T05:29:06.458Z,123.43
2017-12-26T05:31:35.901Z,114.53
2017-12-26T05:34:05.816Z,135.30
2017-12-26T05:36:34.461Z,150.57
2017-12-26T05:39:03.154Z,104.03
2017-12-26T05:41:31.874Z,94.73
2017-12-26T05:44:00.460Z,78.57
2017-12-26T05:46:29.107Z,80.37
2017-12-26T05:48:57.833Z,76.37
2017-12-26T05:51:26.471Z,167.77
2017-12-26T05:53:55.204Z,105.83
2017-12-26T05:56:23.989Z,129.97
2017-12-26T05:58:52.575Z,38.03
2017-12-26T06:01:21.163Z,23.33
2017-12-26T06:03:49.948Z,19.87
2017-12-26T06:06:18.528Z,136.37
2017-12-26T06:08:47.214Z,21.83
2017-12-26T06:11:16.410Z,24.40
2017-12-26T06:13:44.996Z,179.47
2017-12-26T06:16:13.668Z,56.57
2017-12-26T06:18:42.774Z,33.30
2017-12-26T06:21:11.430Z,30.87
2017-12-26T06:23:40.147Z,14.87
2017-12-26T06:26:08.832Z,12.27
2017-12-26T06:28:37.420Z,61.33
2017-12-26T06:31:06.009Z,33.90
2017-12-26T06:33:34.714Z,24.67
2017-12-26T06:36:03.356Z,58.17
2017-12-26T06:38:32.049Z,34.57
2017-12-26T06:41:00.935Z,76.57
2017-12-26T06:43:29.587Z,45.67
2017-12-26T06:45:58.307Z,33.67
2017-12-26T06:48:27.348Z,29.13
2017-12-26T06:50:56.808Z,27.50
2017-12-26T06:53:25.481Z,28.17
2017-12-26T06:55:54.387Z,27.57
2017-12-26T06:58:23.020Z,34.50
2017-12-26T07:00:51.687Z,88.87
2017-12-26T07:03:20.754Z,145.43
2017-12-26T07:05:49.484Z,114.80
2017-12-26T07:08:18.072Z,155.50
2017-12-26T07:10:46.807Z,134.50
2017-12-26T07:13:16.265Z,79.90
2017-12-26T07:15:44.820Z,91.93
2017-12-26T07:18:13.428Z,66.67
2017-12-26T07:20:47.489Z,89.33
2017-12-26T07:23:16.945Z,100.93
2017-12-26T07:25:45.630Z,82.93
2017-12-26T07:28:14.254Z,60.37
2017-12-26T07:30:43.769Z,68.90
2017-12-26T07:33:13.217Z,84.43
2017-12-26T07:35:41.909Z,124.13
2017-12-26T07:38:10.902Z,104.90
2017-12-26T07:40:41.633Z,97.23
2017-12-26T07:43:10.307Z,112.73
2017-12-26T07:45:38.951Z,98.40
2017-12-26T07:48:08.411Z,175.47
2017-12-26T07:50:37.090Z,121.43
2017-12-26T07:53:05.994Z,170.23
2017-12-26T07:55:34.670Z,161.80
2017-12-26T07:58:03.313Z,99.97
2017-12-26T08:00:32.809Z,149.67
2017-12-26T08:03:02.269Z,122.90
2017-12-26T08:05:30.942Z,260.20
2017-12-26T08:07:59.687Z,147.23
2017-12-26T08:10:29.034Z,141.30
2017-12-26T08:12:57.622Z,111.13
2017-12-26T08:15:26.511Z,159.90
2017-12-26T08:17:55.197Z,199.90
2017-12-26T08:20:23.882Z,197.47
2017-12-26T08:22:53.600Z,178.00
2017-12-26T08:25:22.286Z,217.07
2017-12-26T08:27:50.925Z,241.27
2017-12-26T08:30:20.621Z,276.47
2017-12-26T08:32:50.075Z,182.17
2017-12-26T08:35:18.762Z,188.53
2017-12-26T08:37:47.368Z,125.30
2017-12-26T08:40:16.091Z,205.97
2017-12-26T08:42:44.818Z,212.10
2017-12-26T08:45:13.812Z,141.90
2017-12-26T08:47:42.444Z,259.27
2017-12-26T08:50:11.907Z,187.30
2017-12-26T08:52:40.692Z,348.67
2017-12-26T08:55:09.378Z,207.70
2017-12-26T08:57:37.956Z,139.77
2017-12-26T09:00:07.008Z,186.30
2017-12-26T09:02:36.455Z,165.00
2017-12-26T09:05:05.042Z,195.10
2017-12-26T09:07:34.134Z,86.37
2017-12-26T09:10:02.820Z,180.63
2017-12-26T09:12:31.407Z,212.07
2017-12-26T09:15:00.338Z,151.73
2017-12-26T09:17:29.756Z,263.93
2017-12-26T09:19:58.486Z,218.67
2017-12-26T09:22:27.477Z,94.93
2017-12-26T09:24:56.109Z,158.50
2017-12-26T09:27:25.575Z,169.07
2017-12-26T09:29:54.457Z,249.17
2017-12-26T09:32:23.822Z,235.77
2017-12-26T09:34:52.508Z,153.07
2017-12-26T09:37:21.184Z,83.80
2017-12-26T09:39:49.880Z,155.03
2017-12-26T09:42:18.566Z,82.87
2017-12-26T09:44:47.351Z,116.67
2017-12-26T09:47:15.994Z,236.07
2017-12-26T09:49:44.722Z,153.90
2017-12-26T09:52:13.455Z,156.20
2017-12-26T09:54:42.916Z,94.50
2017-12-26T09:57:11.537Z,72.80
2017-12-26T09:59:41.307Z,155.73
2017-12-26T10:02:09.994Z,108.30
2017-12-26T10:04:39.503Z,86.27
2017-12-26T10:07:08.183Z,86.17
2017-12-26T10:09:36.824Z,160.10
2017-12-26T10:12:06.312Z,98.63
2017-12-26T10:14:35.839Z,65.23
2017-12-26T10:17:04.567Z,80.03
2017-12-26T10:19:33.256Z,79.33
2017-12-26T10:22:02.292Z,68.93
2017-12-26T10:24:31.643Z,70.03
2017-12-26T10:27:00.232Z,81.63
2017-12-26T10:29:29.735Z,151.93
2017-12-26T10:31:58.426Z,154.37
2017-12-26T10:34:27.111Z,172.73
2017-12-26T10:36:55.789Z,257.80
2017-12-26T10:39:24.491Z,284.77
2017-12-26T10:41:53.058Z,167.53
2017-12-26T10:44:21.799Z,197.17
2017-12-26T10:46:51.255Z,128.40
2017-12-26T10:49:19.940Z,298.63
2017-12-26T10:51:48.933Z,147.60
2017-12-26T10:54:18.134Z,203.50
2017-12-26T10:56:46.819Z,94.20
2017-12-26T10:59:15.495Z,165.67
2017-12-26T11:01:44.192Z,324.37
2017-12-26T11:04:12.866Z,113.73
2017-12-26T11:06:41.969Z,151.87
2017-12-26T11:09:10.654Z,79.13
2017-12-26T11:11:39.341Z,116.60
2017-12-26T11:14:08.391Z,63.07
2017-12-26T11:16:37.034Z,64.77
2017-12-26T11:19:05.699Z,56.20
2017-12-26T11:21:34.443Z,118.63
2017-12-26T11:24:03.899Z,152.07
2017-12-26T11:26:32.585Z,179.43
2017-12-26T11:29:01.776Z,155.80
2017-12-26T11:31:30.417Z,155.20
2017-12-26T11:33:59.148Z,80.33
2017-12-26T11:36:27.943Z,160.50
2017-12-26T11:38:56.615Z,324.27
2017-12-26T11:41:25.309Z,175.53
2017-12-26T11:43:54.000Z,433.43
2017-12-26T11:46:22.668Z,149.97
2017-12-26T11:48:51.395Z,178.03
2017-12-26T11:51:20.013Z,196.47
2017-12-26T11:53:48.714Z,118.27
2017-12-26T11:56:17.393Z,179.07
2017-12-26T11:58:46.137Z,182.40
2017-12-26T12:01:14.865Z,303.97
2017-12-26T12:03:43.550Z,147.37
2017-12-26T12:06:12.237Z,163.23
2017-12-26T12:08:40.856Z,243.60
2017-12-26T12:11:10.321Z,163.53
2017-12-26T12:13:39.063Z,237.60
2017-12-26T12:16:08.515Z,105.17
2017-12-26T12:18:37.092Z,129.43
2017-12-26T12:21:05.845Z,104.37
2017-12-26T12:23:34.573Z,204.83
2017-12-26T12:26:03.258Z,147.60
2017-12-26T12:28:32.043Z,146.73
2017-12-26T12:31:00.691Z,165.13
2017-12-26T12:33:29.414Z,70.87
2017-12-26T12:35:58.100Z,69.73
2017-12-26T12:38:26.744Z,112.13
2017-12-26T12:40:55.392Z,63.50
2017-12-26T12:43:24.157Z,96.07
2017-12-26T12:45:52.843Z,84.00
2017-12-26T12:48:21.490Z,65.23
2017-12-26T12:50:50.080Z,63.43
2017-12-26T12:53:18.750Z,68.33
2017-12-26T12:55:48.201Z,60.60
2017-12-26T12:58:17.160Z,56.63
2017-12-26T13:00:45.878Z,52.30
2017-12-26T13:03:14.521Z,60.13
2017-12-26T13:05:43.214Z,63.30
2017-12-26T13:08:11.882Z,94.13
2017-12-26T13:10:41.346Z,55.57
2017-12-26T13:13:10.518Z,52.30
2017-12-26T13:15:39.224Z,46.93
2017-12-26T13:18:07.810Z,52.80
2017-12-26T13:20:36.706Z,42.40
2017-12-26T13:23:05.386Z,45.90
2017-12-26T13:25:34.077Z,79.40
2017-12-26T13:28:02.924Z,46.47
2017-12-26T13:30:31.646Z,191.77
2017-12-26T13:33:00.285Z,101.17
2017-12-26T13:35:29.779Z,168.77
2017-12-26T13:37:59.196Z,87.93
2017-12-26T13:40:27.926Z,167.80
2017-12-26T13:42:57.006Z,121.13
2017-12-26T13:45:25.715Z,107.80
2017-12-26T13:47:54.293Z,77.00
2017-12-26T13:50:22.982Z,143.57
2017-12-26T13:52:51.626Z,243.80
2017-12-26T13:55:20.349Z,574.50
2017-12-26T13:57:49.863Z,577.00
2017-12-26T14:00:18.605Z,560.90
2017-12-26T14:02:47.328Z,534.87
2017-12-26T14:05:16.265Z,431.67
2017-12-26T14:07:45.732Z,263.70
2017-12-26T14:10:14.307Z,129.87
2017-12-26T14:12:43.243Z,147.83
2017-12-26T14:15:12.658Z,221.63
2017-12-26T14:17:42.107Z,272.63
2017-12-26T14:20:11.100Z,180.90
2017-12-26T14:22:39.784Z,193.33
2017-12-26T14:25:08.472Z,222.67
2017-12-26T14:27:37.465Z,141.57
2017-12-26T14:30:06.143Z,236.30
2017-12-26T14:32:34.835Z,200.60
2017-12-26T14:35:03.529Z,236.57
2017-12-26T14:37:32.205Z,297.63
2017-12-26T14:40:00.885Z,384.27
2017-12-26T14:42:29.481Z,360.23
2017-12-26T14:44:58.175Z,294.77
2017-12-26T14:47:26.867Z,204.80
2017-12-26T14:49:55.636Z,365.53
2017-12-26T14:52:24.302Z,196.63
2017-12-26T14:54:52.994Z,302.87
2017-12-26T14:57:22.099Z,306.53
2017-12-26T14:59:50.685Z,273.20
2017-12-26T15:02:19.379Z,387.27
2017-12-26T15:04:48.257Z,361.23
2017-12-26T15:07:16.951Z,366.10
2017-12-26T15:09:45.574Z,269.03
2017-12-26T15:12:14.994Z,419.80
2017-12-26T15:14:43.714Z,235.77
2017-12-26T15:17:12.408Z,389.97
2017-12-26T15:19:41.401Z,501.73
2017-12-26T15:22:10.185Z,293.53
2017-12-26T15:24:38.772Z,364.37
2017-12-26T15:27:07.666Z,475.53
2017-12-26T15:29:36.339Z,266.50
2017-12-26T15:32:05.040Z,440.60
2017-12-26T15:34:33.822Z,349.13
2017-12-26T15:37:02.447Z,277.80
2017-12-26T15:39:31.807Z,304.60
2017-12-26T15:42:00.592Z,258.13
2017-12-26T15:44:29.277Z,215.43
2017-12-26T15:46:57.963Z,274.83
2017-12-26T15:49:27.111Z,283.10
2017-12-26T15:51:56.567Z,239.70
2017-12-26T15:54:25.197Z,320.20
2017-12-26T15:56:53.985Z,283.33
2017-12-26T15:59:23.445Z,301.17
2017-12-26T16:01:52.130Z,265.40
2017-12-26T16:04:21.220Z,281.30
2017-12-26T16:06:49.808Z,279.57
2017-12-26T16:09:18.368Z,333.60
2017-12-26T16:11:47.246Z,207.83
2017-12-26T16:14:15.914Z,196.70
2017-12-26T16:16:45.372Z,160.23
2017-12-26T16:19:14.098Z,259.53
2017-12-26T16:21:43.557Z,205.90
2017-12-26T16:24:12.276Z,134.63
2017-12-26T16:26:42.002Z,169.53
2017-12-26T16:29:15.098Z,178.10
2017-12-26T16:31:47.207Z,216.10
2017-12-26T16:34:15.892Z,136.83
2017-12-26T16:36:44.522Z,237.03
2017-12-26T16:39:14.185Z,273.40
2017-12-26T16:41:42.871Z,222.47
2017-12-26T16:44:11.557Z,291.37
2017-12-26T16:46:40.351Z,207.53
2017-12-26T16:49:09.038Z,182.33
2017-12-26T16:51:37.613Z,170.47
2017-12-26T16:54:06.715Z,162.53
2017-12-26T16:56:35.407Z,164.73
2017-12-26T16:59:04.081Z,169.30
2017-12-26T17:01:32.773Z,205.87
2017-12-26T17:04:01.457Z,387.80
2017-12-26T17:06:30.142Z,353.40
2017-12-26T17:09:15.106Z,278.10
2017-12-26T17:11:43.795Z,230.67
2017-12-26T17:14:12.481Z,194.00
2017-12-26T17:16:41.156Z,260.93
2017-12-26T17:19:09.852Z,228.83
2017-12-26T17:21:38.539Z,725.20
2017-12-26T17:24:07.421Z,449.23
2017-12-26T17:26:36.061Z,194.37
2017-12-26T17:29:04.692Z,201.73
2017-12-26T17:31:33.587Z,345.83
2017-12-26T17:34:02.164Z,303.67
2017-12-26T17:36:30.849Z,241.60
2017-12-26T17:38:59.536Z,372.93
2017-12-26T17:41:28.220Z,163.73
2017-12-26T17:43:56.904Z,137.70
2017-12-26T17:46:25.898Z,212.93
2017-12-26T17:48:54.537Z,198.20
2017-12-26T17:51:23.993Z,236.90
2017-12-26T17:53:52.724Z,224.70
2017-12-26T17:56:22.177Z,156.80
2017-12-26T17:58:50.862Z,250.80
2017-12-26T18:01:19.657Z,200.10
2017-12-26T18:03:48.342Z,220.30
2017-12-26T18:06:16.918Z,169.87
2017-12-26T18:08:45.604Z,182.70
2017-12-26T18:11:14.248Z,257.93
2017-12-26T18:13:42.940Z,241.03
2017-12-26T18:16:11.704Z,310.30
2017-12-26T18:18:41.190Z,281.70
2017-12-26T18:21:09.868Z,232.27
2017-12-26T18:23:38.638Z,323.47
2017-12-26T18:26:07.324Z,236.60
2017-12-26T18:31:09.512Z,253.97
2017-12-26T18:33:38.209Z,252.90
2017-12-26T18:36:06.768Z,395.57
2017-12-26T18:38:35.642Z,217.53
2017-12-26T18:41:04.352Z,204.33
2017-12-26T18:43:33.038Z,204.07
2017-12-26T18:46:02.031Z,338.73
2017-12-26T18:48:31.545Z,283.00
2017-12-26T18:51:00.630Z,238.60
2017-12-26T18:53:29.426Z,164.33
2017-12-26T18:55:58.063Z,255.67
2017-12-26T18:58:27.511Z,137.77
2017-12-26T19:00:56.673Z,108.13
2017-12-26T19:03:25.396Z,231.70
2017-12-26T19:05:54.182Z,313.10
2017-12-26T19:08:22.880Z,198.63
2017-12-26T19:10:51.547Z,251.73
2017-12-26T19:13:20.191Z,336.23
2017-12-26T19:15:49.848Z,275.50
2017-12-26T19:18:18.420Z,293.83
2017-12-26T19:20:47.116Z,145.50
2017-12-26T19:23:16.084Z,223.70
2017-12-26T19:25:44.751Z,221.20
2017-12-26T19:28:13.480Z,197.37
2017-12-26T19:30:42.265Z,257.23
2017-12-26T19:33:10.950Z,232.40
2017-12-26T19:35:39.529Z,270.60
2017-12-26T19:38:08.320Z,287.07
2017-12-26T19:40:37.007Z,417.10
2017-12-26T19:43:05.682Z,212.77
2017-12-26T19:45:34.587Z,294.97
2017-12-26T19:48:03.169Z,256.50
2017-12-26T19:50:31.848Z,263.53
2017-12-26T19:53:00.800Z,241.70
2017-12-26T19:55:29.526Z,249.77
2017-12-26T19:57:58.343Z,214.77
2017-12-26T20:00:27.413Z,230.07
2017-12-26T20:02:56.101Z,158.90
2017-12-26T20:05:24.740Z,170.20
2017-12-26T20:07:53.568Z,285.53
2017-12-26T20:10:22.200Z,156.87
2017-12-26T20:12:52.381Z,139.83
2017-12-26T20:15:21.062Z,238.47
2017-12-26T20:17:49.804Z,199.43
2017-12-26T20:20:18.532Z,171.23
2017-12-26T20:22:47.489Z,212.97
2017-12-26T20:25:16.157Z,262.60
2017-12-26T20:27:45.620Z,270.57
2017-12-26T20:30:14.296Z,346.80
2017-12-26T20:32:43.914Z,302.13
2017-12-26T20:35:12.599Z,241.53
2017-12-26T20:37:41.384Z,219.27
2017-12-26T20:40:10.063Z,406.50
2017-12-26T20:42:38.707Z,256.97
2017-12-26T20:45:08.195Z,186.43
2017-12-26T20:47:37.616Z,329.73
2017-12-26T20:50:06.285Z,256.27
2017-12-26T20:52:36.055Z,288.10
2017-12-26T20:55:04.694Z,283.00
2017-12-26T20:57:33.424Z,421.30
2017-12-26T21:00:02.417Z,345.50
2017-12-26T21:02:31.048Z,313.67
2017-12-26T21:05:00.516Z,307.63
2017-12-26T21:07:29.112Z,391.97
2017-12-26T21:09:57.847Z,383.90
2017-12-26T21:12:26.516Z,328.53
2017-12-26T21:14:56.211Z,350.20
2017-12-26T21:17:25.673Z,267.10
2017-12-26T21:19:54.359Z,309.30
2017-12-26T21:22:23.315Z,319.47
2017-12-26T21:24:52.008Z,287.00
2017-12-26T21:27:20.723Z,323.77
2017-12-26T21:29:49.412Z,436.40
2017-12-26T21:32:17.998Z,334.73
2017-12-26T21:34:46.582Z,295.03
2017-12-26T21:37:15.921Z,390.90
2017-12-26T21:39:45.380Z,326.93
2017-12-26T21:42:14.067Z,225.00
2017-12-26T21:44:43.051Z,300.53
2017-12-26T21:47:11.744Z,363.43
2017-12-26T21:49:40.386Z,287.67
2017-12-26T21:52:09.027Z,373.63
2017-12-26T21:54:37.701Z,249.50
2017-12-26T21:57:06.338Z,294.47
2017-12-26T21:59:35.827Z,183.30
2017-12-26T22:02:05.190Z,215.47
2017-12-26T22:04:33.882Z,248.07
2017-12-26T22:07:02.609Z,230.17
2017-12-26T22:09:32.027Z,305.30
2017-12-26T22:12:00.751Z,290.00
2017-12-26T22:14:29.484Z,360.53
2017-12-26T22:16:58.945Z,375.23
2017-12-26T22:19:27.630Z,296.77
2017-12-26T22:21:56.416Z,224.03
2017-12-26T22:24:25.058Z,226.47
2017-12-26T22:26:53.794Z,257.30
2017-12-26T22:29:22.472Z,189.57
2017-12-26T22:31:51.059Z,263.23
2017-12-26T22:34:19.704Z,247.40
2017-12-26T22:36:48.796Z,292.00
2017-12-26T22:39:17.522Z,293.90
2017-12-26T22:41:46.207Z,210.63
2017-12-26T22:44:15.200Z,243.80
2017-12-26T22:46:43.886Z,264.73
2017-12-26T22:49:12.472Z,233.60
2017-12-26T22:51:41.466Z,264.60
2017-12-26T22:54:10.152Z,168.50
2017-12-26T22:56:38.728Z,235.67
2017-12-26T22:59:12.814Z,179.00
2017-12-26T23:01:41.414Z,238.20
2017-12-26T23:04:10.141Z,220.07
2017-12-26T23:06:40.013Z,215.03
2017-12-26T23:09:08.651Z,255.43
2017-12-26T23:11:38.097Z,228.30
2017-12-26T23:14:12.359Z,179.57
2017-12-26T23:16:47.252Z,268.63
2017-12-26T23:19:16.037Z,227.07
2017-12-26T23:21:44.715Z,323.77
2017-12-26T23:27:22.342Z,294.67
2017-12-26T23:29:56.380Z,256.10
2017-12-26T23:32:30.668Z,208.63
2017-12-26T23:35:05.226Z,297.73
2017-12-26T23:37:40.120Z,286.73
2017-12-26T23:40:14.590Z,318.17
2017-12-26T23:42:49.571Z,377.83
2017-12-26T23:45:24.095Z,234.33
2017-12-26T23:47:58.307Z,241.43
2017-12-26T23:50:32.681Z,282.90
2017-12-26T23:53:07.661Z,294.97
2017-12-26T23:55:41.778Z,269.83
2017-12-26T23:58:16.091Z,190.90
